createdAt,value
2019-03-28T00:00:02.244Z,4.50
2019-03-28T00:02:32.241Z,4.40
2019-03-28T00:05:02.528Z,4.40
2019-03-28T00:07:32.542Z,4.40
2019-03-28T00:10:02.740Z,4.30
2019-03-28T00:12:32.789Z,4.30
2019-03-28T00:15:02.748Z,4.30
2019-03-28T00:17:32.717Z,4.30
2019-03-28T00:20:02.700Z,4.20
2019-03-28T00:22:51.620Z,4.20
2019-03-28T00:25:21.613Z,4.10
2019-03-28T00:27:51.873Z,4.20
2019-03-28T00:30:22.560Z,4.10
2019-03-28T00:32:52.832Z,4.10
2019-03-28T00:35:22.751Z,4.00
2019-03-28T00:37:52.702Z,4.00
2019-03-28T00:40:22.688Z,4.00
2019-03-28T00:42:52.641Z,4.00
2019-03-28T00:45:22.621Z,4.00
2019-03-28T00:47:52.578Z,4.00
2019-03-28T00:50:22.539Z,4.00
2019-03-28T00:52:52.490Z,3.90
2019-03-28T00:55:22.522Z,3.90
2019-03-28T00:57:52.821Z,3.80
2019-03-28T01:00:23.114Z,3.80
2019-03-28T01:02:53.126Z,3.90
2019-03-28T01:05:23.118Z,3.80
2019-03-28T01:07:53.078Z,3.90
2019-03-28T01:10:23.443Z,3.80
2019-03-28T01:12:53.662Z,3.80
2019-03-28T01:15:23.627Z,3.70
2019-03-28T01:17:53.614Z,3.70
2019-03-28T01:20:23.607Z,3.60
2019-03-28T01:22:53.910Z,3.60
2019-03-28T01:25:24.140Z,3.50
2019-03-28T01:27:54.210Z,3.60
2019-03-28T01:30:24.462Z,3.70
2019-03-28T01:32:54.437Z,3.60
2019-03-28T01:35:24.722Z,3.50
2019-03-28T01:37:54.712Z,3.50
2019-03-28T01:40:24.674Z,3.40
2019-03-28T01:42:54.630Z,3.50
2019-03-28T01:45:24.601Z,3.60
2019-03-28T01:47:54.578Z,3.70
2019-03-28T01:50:24.570Z,3.70
2019-03-28T01:52:54.537Z,3.70
2019-03-28T01:55:24.521Z,3.70
2019-03-28T01:57:54.468Z,3.70
2019-03-28T02:00:24.437Z,3.70
2019-03-28T02:02:54.695Z,3.60
2019-03-28T02:05:25.054Z,3.60
2019-03-28T02:07:55.649Z,3.60
2019-03-28T02:10:25.759Z,3.60
2019-03-28T02:12:56.183Z,3.50
2019-03-28T02:15:26.182Z,3.40
2019-03-28T02:17:56.405Z,3.50
2019-03-28T02:20:26.732Z,3.40
2019-03-28T02:22:57.150Z,3.40
2019-03-28T02:25:27.505Z,3.40
2019-03-28T02:27:57.460Z,3.40
2019-03-28T02:30:33.027Z,3.40
2019-03-28T02:33:03.133Z,3.30
2019-03-28T02:35:33.126Z,3.30
2019-03-28T02:38:03.054Z,3.30
2019-03-28T02:40:32.980Z,3.40
2019-03-28T02:43:02.930Z,3.30
2019-03-28T02:45:33.242Z,3.30
2019-03-28T02:48:03.540Z,3.20
2019-03-28T02:50:33.511Z,3.10
2019-03-28T02:53:03.473Z,3.10
2019-03-28T02:55:33.425Z,3.10
2019-03-28T02:58:03.366Z,3.10
2019-03-28T03:00:33.321Z,3.00
2019-03-28T03:03:03.315Z,2.90
2019-03-28T03:05:33.287Z,2.90
2019-03-28T03:08:03.233Z,2.90
2019-03-28T03:10:33.201Z,2.80
2019-03-28T03:13:03.155Z,2.70
2019-03-28T03:15:33.402Z,2.70
2019-03-28T03:18:03.342Z,2.60
2019-03-28T03:20:33.310Z,2.60
2019-03-28T03:23:03.254Z,2.50
2019-03-28T03:25:33.211Z,2.50
2019-03-28T03:28:03.147Z,2.40
2019-03-28T03:30:33.123Z,2.50
2019-03-28T03:33:03.052Z,2.50
2019-03-28T03:35:33.024Z,2.50
2019-03-28T03:38:02.981Z,2.40
2019-03-28T03:40:33.062Z,2.40
2019-03-28T03:43:03.028Z,2.30
2019-03-28T03:45:33.089Z,2.30
2019-03-28T03:48:03.039Z,2.20
2019-03-28T03:50:33.080Z,2.30
2019-03-28T03:53:03.033Z,2.20
2019-03-28T03:55:33.142Z,2.20
2019-03-28T03:58:15.433Z,2.30
2019-03-28T04:00:36.094Z,2.30
2019-03-28T04:03:06.241Z,2.30
2019-03-28T04:05:36.222Z,2.20
2019-03-28T04:08:06.262Z,2.20
2019-03-28T04:10:36.268Z,2.30
2019-03-28T04:13:06.221Z,2.20
2019-03-28T04:15:36.269Z,2.10
2019-03-28T04:18:06.241Z,2.00
2019-03-28T04:20:36.163Z,2.00
2019-03-28T04:23:06.134Z,2.00
2019-03-28T04:25:36.083Z,2.00
2019-03-28T04:28:06.409Z,2.00
2019-03-28T04:30:36.642Z,2.00
2019-03-28T04:33:06.633Z,2.00
2019-03-28T04:35:36.579Z,2.00
2019-03-28T04:38:06.598Z,1.90
2019-03-28T04:40:36.557Z,1.90
2019-03-28T04:43:06.543Z,2.00
2019-03-28T04:45:36.488Z,2.00
2019-03-28T04:48:06.729Z,1.90
2019-03-28T04:50:36.741Z,1.80
2019-03-28T04:53:06.730Z,1.80
2019-03-28T04:55:36.990Z,1.70
2019-03-28T04:58:07.234Z,1.70
2019-03-28T05:00:37.173Z,1.70
2019-03-28T05:03:07.195Z,1.60
2019-03-28T05:05:37.128Z,1.60
2019-03-28T05:08:07.102Z,1.60
2019-03-28T05:10:37.422Z,1.60
2019-03-28T05:13:07.390Z,1.60
2019-03-28T05:15:37.675Z,1.70
2019-03-28T05:18:07.646Z,1.70
2019-03-28T05:20:37.844Z,1.70
2019-03-28T05:23:08.088Z,1.80
2019-03-28T05:25:38.073Z,1.80
2019-03-28T05:28:08.046Z,1.80
2019-03-28T05:30:38.270Z,1.90
2019-03-28T05:33:08.240Z,1.90
2019-03-28T05:35:38.242Z,1.90
2019-03-28T05:38:08.274Z,1.90
2019-03-28T05:40:38.445Z,1.90
2019-03-28T05:43:08.414Z,2.00
2019-03-28T05:45:38.363Z,2.10
2019-03-28T05:48:08.352Z,2.10
2019-03-28T05:50:38.546Z,2.20
2019-03-28T05:53:08.540Z,2.40
2019-03-28T05:55:38.491Z,2.60
2019-03-28T05:58:09.695Z,2.60
2019-03-28T06:00:40.257Z,2.60
2019-03-28T06:03:10.315Z,2.70
2019-03-28T06:05:40.530Z,2.80
2019-03-28T06:08:10.654Z,3.00
2019-03-28T06:10:41.172Z,3.10
2019-03-28T06:13:11.138Z,3.20
2019-03-28T06:15:41.287Z,3.20
2019-03-28T06:18:11.285Z,3.30
2019-03-28T06:20:41.599Z,3.40
2019-03-28T06:23:11.841Z,3.50
2019-03-28T06:25:41.834Z,3.50
2019-03-28T06:28:12.556Z,3.70
2019-03-28T06:30:42.505Z,3.70
2019-03-28T06:33:12.518Z,3.90
2019-03-28T06:35:42.443Z,4.00
2019-03-28T06:38:12.414Z,4.00
2019-03-28T06:40:42.375Z,4.10
2019-03-28T06:43:12.670Z,4.30
2019-03-28T06:45:42.653Z,4.40
2019-03-28T06:48:12.654Z,4.40
2019-03-28T06:50:42.628Z,4.60
2019-03-28T06:53:12.811Z,4.70
2019-03-28T06:55:42.711Z,4.80
2019-03-28T06:58:12.659Z,5.00
2019-03-28T07:00:43.349Z,5.30
2019-03-28T07:03:13.323Z,5.30
2019-03-28T07:05:43.589Z,5.40
2019-03-28T07:08:13.817Z,5.50
2019-03-28T07:10:43.797Z,5.60
2019-03-28T07:13:13.742Z,5.80
2019-03-28T07:15:44.083Z,6.00
2019-03-28T07:18:14.318Z,6.10
2019-03-28T07:20:44.290Z,6.00
2019-03-28T07:23:14.876Z,6.20
2019-03-28T07:25:44.897Z,6.30
2019-03-28T07:28:14.838Z,6.40
2019-03-28T07:30:45.378Z,6.50
2019-03-28T07:33:15.428Z,6.70
2019-03-28T07:35:45.453Z,6.70
2019-03-28T07:38:15.698Z,6.80
2019-03-28T07:40:45.667Z,7.00
2019-03-28T07:43:15.613Z,7.10
2019-03-28T07:45:45.642Z,7.30
2019-03-28T07:48:15.622Z,7.50
2019-03-28T07:50:45.609Z,7.60
2019-03-28T07:53:15.579Z,7.70
2019-03-28T07:55:45.934Z,7.80
2019-03-28T07:58:16.212Z,7.90
2019-03-28T08:00:46.189Z,8.10
2019-03-28T08:03:16.464Z,8.30
2019-03-28T08:05:46.483Z,8.40
2019-03-28T08:08:15.705Z,8.40
2019-03-28T08:10:45.711Z,8.60
2019-03-28T08:13:15.769Z,8.70
2019-03-28T08:15:45.749Z,8.70
2019-03-28T08:18:15.999Z,8.70
2019-03-28T08:20:46.362Z,8.80
2019-03-28T08:23:16.353Z,8.90
2019-03-28T08:25:46.357Z,9.00
2019-03-28T08:28:16.674Z,8.90
2019-03-28T08:30:46.659Z,9.00
2019-03-28T08:33:16.627Z,9.00
2019-03-28T08:35:46.999Z,8.90
2019-03-28T08:38:18.360Z,9.30
2019-03-28T08:40:48.589Z,9.30
2019-03-28T08:43:18.528Z,9.40
2019-03-28T08:45:48.523Z,9.30
2019-03-28T08:48:18.466Z,9.40
2019-03-28T08:50:49.181Z,9.50
2019-03-28T08:53:19.494Z,9.60
2019-03-28T08:55:50.198Z,9.60
2019-03-28T08:58:20.187Z,9.60
2019-03-28T09:00:52.653Z,9.70
2019-03-28T09:03:22.476Z,9.90
2019-03-28T09:05:52.448Z,10.10
2019-03-28T09:08:23.693Z,10.10
2019-03-28T09:10:53.644Z,10.30
2019-03-28T09:13:23.603Z,10.50
2019-03-28T09:15:54.174Z,10.50
2019-03-28T09:18:24.849Z,10.70
2019-03-28T09:20:54.842Z,10.60
2019-03-28T09:23:25.109Z,10.60
2019-03-28T09:25:55.373Z,10.60
2019-03-28T09:28:25.350Z,10.80
2019-03-28T09:30:55.329Z,10.80
2019-03-28T09:33:26.228Z,10.80
2019-03-28T09:35:56.226Z,10.90
2019-03-28T09:38:26.220Z,11.00
2019-03-28T09:40:56.486Z,11.10
2019-03-28T09:43:26.842Z,11.00
2019-03-28T09:46:00.118Z,11.10
2019-03-28T09:48:28.961Z,11.30
2019-03-28T09:50:58.967Z,11.20
2019-03-28T09:53:28.927Z,11.40
2019-03-28T09:55:59.007Z,11.30
2019-03-28T09:58:28.971Z,11.50
2019-03-28T10:01:03.242Z,11.60
2019-03-28T10:03:31.197Z,11.50
2019-03-28T10:06:01.408Z,11.60
2019-03-28T10:08:31.391Z,11.60
2019-03-28T10:11:01.400Z,11.50
2019-03-28T10:13:31.630Z,12.00
2019-03-28T10:16:01.720Z,12.00
2019-03-28T10:18:31.708Z,11.80
2019-03-28T10:21:01.733Z,11.80
2019-03-28T10:23:31.977Z,11.60
2019-03-28T10:26:02.304Z,11.60
2019-03-28T10:28:32.535Z,11.90
2019-03-28T10:31:15.465Z,12.00
2019-03-28T10:33:34.370Z,12.00
2019-03-28T10:36:04.355Z,11.90
2019-03-28T10:38:34.409Z,12.20
2019-03-28T10:41:04.422Z,12.40
2019-03-28T10:43:34.441Z,12.30
2019-03-28T10:46:04.461Z,12.60
2019-03-28T10:48:34.476Z,13.00
2019-03-28T10:51:04.590Z,12.90
2019-03-28T10:53:34.620Z,13.00
2019-03-28T10:56:04.644Z,13.30
2019-03-28T10:58:35.144Z,13.30
2019-03-28T11:01:05.897Z,13.30
2019-03-28T11:03:36.579Z,13.50
2019-03-28T11:06:06.855Z,13.60
2019-03-28T11:08:36.949Z,13.30
2019-03-28T11:11:07.086Z,13.50
2019-03-28T11:13:37.516Z,13.50
2019-03-28T11:16:07.499Z,13.60
2019-03-28T11:18:37.527Z,13.40
2019-03-28T11:21:07.827Z,13.50
2019-03-28T11:23:37.862Z,13.70
2019-03-28T11:26:07.859Z,13.80
2019-03-28T11:28:37.942Z,13.50
2019-03-28T11:31:07.926Z,13.70
2019-03-28T11:33:38.292Z,13.60
2019-03-28T11:36:08.334Z,13.70
2019-03-28T11:38:38.384Z,13.90
2019-03-28T11:41:08.804Z,14.20
2019-03-28T11:43:39.087Z,14.00
2019-03-28T11:46:09.410Z,14.30
2019-03-28T11:48:39.754Z,14.30
2019-03-28T11:51:09.765Z,14.70
2019-03-28T11:53:39.806Z,14.80
2019-03-28T11:56:09.802Z,15.10
2019-03-28T11:58:39.815Z,15.10
2019-03-28T12:01:09.848Z,14.60
2019-03-28T12:03:39.874Z,14.60
2019-03-28T12:06:10.759Z,14.70
2019-03-28T12:08:40.872Z,14.80
2019-03-28T12:11:10.871Z,14.90
2019-03-28T12:13:45.080Z,14.60
2019-03-28T12:16:12.926Z,14.70
2019-03-28T12:18:43.279Z,15.00
2019-03-28T12:21:13.293Z,15.10
2019-03-28T12:23:43.612Z,15.30
2019-03-28T12:26:13.602Z,15.10
2019-03-28T12:28:43.621Z,14.80
2019-03-28T12:31:13.679Z,15.10
2019-03-28T12:33:43.719Z,15.20
2019-03-28T12:36:13.743Z,15.20
2019-03-28T12:38:43.908Z,14.80
2019-03-28T12:41:13.928Z,14.90
2019-03-28T12:43:43.932Z,14.90
2019-03-28T12:46:13.911Z,14.80
2019-03-28T12:48:44.290Z,14.90
2019-03-28T12:51:14.307Z,15.10
2019-03-28T12:53:44.506Z,15.00
2019-03-28T12:56:14.495Z,15.00
2019-03-28T12:58:44.518Z,15.10
2019-03-28T13:01:14.527Z,15.10
2019-03-28T13:03:46.299Z,14.90
2019-03-28T13:06:16.541Z,15.00
2019-03-28T13:08:46.573Z,15.00
2019-03-28T13:11:16.953Z,15.10
2019-03-28T13:13:46.970Z,15.10
2019-03-28T13:16:16.961Z,15.00
2019-03-28T13:18:47.320Z,15.10
2019-03-28T13:21:17.300Z,15.00
2019-03-28T13:23:47.593Z,14.90
2019-03-28T13:26:17.601Z,14.90
2019-03-28T13:28:47.916Z,15.00
2019-03-28T13:31:17.907Z,15.10
2019-03-28T13:33:47.931Z,15.10
2019-03-28T13:36:18.234Z,15.00
2019-03-28T13:38:48.269Z,15.20
2019-03-28T13:41:18.432Z,15.10
2019-03-28T13:43:48.513Z,15.10
2019-03-28T13:46:18.810Z,15.10
2019-03-28T13:48:48.819Z,15.00
2019-03-28T13:51:18.917Z,15.10
2019-03-28T13:53:51.920Z,15.20
2019-03-28T13:56:20.602Z,14.90
2019-03-28T13:58:50.648Z,15.00
2019-03-28T14:01:21.021Z,14.80
2019-03-28T14:03:51.109Z,14.80
2019-03-28T14:06:21.103Z,14.60
2019-03-28T14:08:51.127Z,14.50
2019-03-28T14:11:21.119Z,14.60
2019-03-28T14:13:51.281Z,14.80
2019-03-28T14:16:21.293Z,15.00
2019-03-28T14:18:51.271Z,15.00
2019-03-28T14:21:21.303Z,15.00
2019-03-28T14:23:51.322Z,15.00
2019-03-28T14:26:21.377Z,15.10
2019-03-28T14:28:51.371Z,14.90
2019-03-28T14:31:21.505Z,14.80
2019-03-28T14:33:51.499Z,14.70
2019-03-28T14:36:24.952Z,14.50
2019-03-28T14:38:53.382Z,14.40
2019-03-28T14:41:23.786Z,14.30
2019-03-28T14:43:53.783Z,14.20
2019-03-28T14:46:23.775Z,14.20
2019-03-28T14:48:54.602Z,14.20
2019-03-28T14:51:24.992Z,14.20
2019-03-28T14:53:55.820Z,14.10
2019-03-28T14:56:26.249Z,14.20
2019-03-28T14:58:58.489Z,14.20
2019-03-28T15:01:28.642Z,14.30
2019-03-28T15:03:58.627Z,14.30
2019-03-28T15:06:28.643Z,14.30
2019-03-28T15:08:58.628Z,14.30
2019-03-28T15:11:28.650Z,14.40
2019-03-28T15:13:58.642Z,14.30
2019-03-28T15:16:28.669Z,14.40
2019-03-28T15:18:58.680Z,14.60
2019-03-28T15:21:28.703Z,14.50
2019-03-28T15:23:59.010Z,14.50
2019-03-28T15:26:30.382Z,14.40
2019-03-28T15:29:00.377Z,14.40
2019-03-28T15:31:30.454Z,14.50
2019-03-28T15:34:00.469Z,14.40
2019-03-28T15:36:30.515Z,14.30
2019-03-28T15:39:00.505Z,14.30
2019-03-28T15:41:30.509Z,14.50
2019-03-28T15:44:00.524Z,14.40
2019-03-28T15:46:30.898Z,14.40
2019-03-28T15:49:01.793Z,14.30
2019-03-28T15:51:32.350Z,14.20
2019-03-28T15:54:02.501Z,14.20
2019-03-28T15:56:33.399Z,14.40
2019-03-28T15:59:03.406Z,14.30
2019-03-28T16:01:33.696Z,14.20
2019-03-28T16:04:03.981Z,14.20
2019-03-28T16:06:34.006Z,14.00
2019-03-28T16:09:05.974Z,14.10
2019-03-28T16:11:36.036Z,14.20
2019-03-28T16:14:06.338Z,14.10
2019-03-28T16:16:36.730Z,14.10
2019-03-28T16:19:06.940Z,14.10
2019-03-28T16:21:36.988Z,14.00
2019-03-28T16:24:07.026Z,13.90
2019-03-28T16:26:37.731Z,13.90
2019-03-28T16:29:07.731Z,13.90
2019-03-28T16:31:37.795Z,13.80
2019-03-28T16:34:08.145Z,13.90
2019-03-28T16:36:38.262Z,13.80
2019-03-28T16:39:08.785Z,13.70
2019-03-28T16:41:38.809Z,13.60
2019-03-28T16:44:08.863Z,13.60
2019-03-28T16:46:38.880Z,13.50
2019-03-28T16:49:08.915Z,13.50
2019-03-28T16:51:38.924Z,13.40
2019-03-28T16:54:09.205Z,13.30
2019-03-28T16:56:39.248Z,13.20
2019-03-28T16:59:09.555Z,13.10
2019-03-28T17:01:39.758Z,13.10
2019-03-28T17:04:20.194Z,13.00
2019-03-28T17:06:41.417Z,13.00
2019-03-28T17:09:11.701Z,12.90
2019-03-28T17:11:41.724Z,12.80
2019-03-28T17:14:11.733Z,12.70
2019-03-28T17:16:42.777Z,12.60
2019-03-28T17:19:13.241Z,12.60
2019-03-28T17:21:43.269Z,12.50
2019-03-28T17:24:13.270Z,12.50
2019-03-28T17:26:43.312Z,12.40
2019-03-28T17:29:13.335Z,12.30
2019-03-28T17:31:43.377Z,12.30
2019-03-28T17:34:13.683Z,12.30
2019-03-28T17:36:43.696Z,12.20
2019-03-28T17:39:13.783Z,12.30
2019-03-28T17:41:44.556Z,12.20
2019-03-28T17:44:14.830Z,12.10
2019-03-28T17:46:45.050Z,12.10
2019-03-28T17:49:15.338Z,12.00
2019-03-28T17:51:45.764Z,11.90
2019-03-28T17:54:16.623Z,11.80
2019-03-28T17:56:47.689Z,11.80
2019-03-28T17:59:17.925Z,11.70
2019-03-28T18:01:47.961Z,11.70
2019-03-28T18:04:22.961Z,11.70
2019-03-28T18:06:49.734Z,11.60
2019-03-28T18:09:19.822Z,11.50
2019-03-28T18:11:50.175Z,11.50
2019-03-28T18:14:20.160Z,11.40
2019-03-28T18:16:50.215Z,11.30
2019-03-28T18:19:20.199Z,11.30
2019-03-28T18:22:02.724Z,11.20
2019-03-28T18:24:21.912Z,11.20
2019-03-28T18:26:52.076Z,11.10
2019-03-28T18:29:22.163Z,11.00
2019-03-28T18:31:52.700Z,11.00
2019-03-28T18:34:22.890Z,10.90
2019-03-28T18:36:52.943Z,10.90
2019-03-28T18:39:22.948Z,11.00
2019-03-28T18:41:56.235Z,11.00
2019-03-28T18:44:24.621Z,10.80
2019-03-28T18:46:55.002Z,10.80
2019-03-28T18:49:25.028Z,10.80
2019-03-28T18:51:55.088Z,10.80
2019-03-28T18:54:25.079Z,10.90
2019-03-28T18:56:55.374Z,10.80
2019-03-28T18:59:25.415Z,10.80
2019-03-28T19:01:56.124Z,10.90
2019-03-28T19:04:26.137Z,10.80
2019-03-28T19:06:57.725Z,10.80
2019-03-28T19:09:28.612Z,10.90
2019-03-28T19:11:58.647Z,11.10
2019-03-28T19:14:28.677Z,11.10
2019-03-28T19:16:58.755Z,11.20
2019-03-28T19:19:39.210Z,11.20
2019-03-28T19:22:00.426Z,11.30
2019-03-28T19:24:30.730Z,11.40
2019-03-28T19:27:00.741Z,11.40
2019-03-28T19:29:31.071Z,11.40
2019-03-28T19:32:01.076Z,11.40
2019-03-28T19:34:31.123Z,11.40
2019-03-28T19:37:01.701Z,11.40
2019-03-28T19:39:33.410Z,11.40
2019-03-28T19:42:04.651Z,11.30
2019-03-28T19:44:35.921Z,11.30
2019-03-28T19:47:06.772Z,11.20
2019-03-28T19:49:37.368Z,11.20
2019-03-28T19:52:07.481Z,11.20
2019-03-28T19:54:37.511Z,11.20
2019-03-28T19:57:07.501Z,11.10
2019-03-28T19:59:37.750Z,11.10
2019-03-28T20:02:08.236Z,11.10
2019-03-28T20:04:38.373Z,11.10
2019-03-28T20:07:20.885Z,11.10
2019-03-28T20:09:40.085Z,11.10
2019-03-28T20:12:10.263Z,11.00
2019-03-28T20:14:41.208Z,11.00
2019-03-28T20:17:11.761Z,11.10
2019-03-28T20:19:42.075Z,11.00
2019-03-28T20:22:12.108Z,11.10
2019-03-28T20:24:42.138Z,11.10
2019-03-28T20:27:12.138Z,11.10
2019-03-28T20:29:42.163Z,11.10
2019-03-28T20:32:12.173Z,11.00
2019-03-28T20:34:42.568Z,11.00
2019-03-28T20:37:12.594Z,10.90
2019-03-28T20:39:42.647Z,10.80
2019-03-28T20:42:12.941Z,10.60
2019-03-28T20:44:42.975Z,10.60
2019-03-28T20:47:13.387Z,10.60
2019-03-28T20:49:46.562Z,10.40
2019-03-28T20:52:15.757Z,10.30
2019-03-28T20:54:46.101Z,10.30
2019-03-28T20:57:16.114Z,10.20
2019-03-28T20:59:46.801Z,10.10
2019-03-28T21:02:17.078Z,10.10
2019-03-28T21:04:47.643Z,10.10
2019-03-28T21:07:20.182Z,10.10
2019-03-28T21:09:50.479Z,10.20
2019-03-28T21:12:20.765Z,10.30
2019-03-28T21:14:50.786Z,10.20
2019-03-28T21:17:21.083Z,10.30
2019-03-28T21:19:51.126Z,10.40
2019-03-28T21:22:21.397Z,10.40
2019-03-28T21:24:51.343Z,10.30
2019-03-28T21:27:21.360Z,10.30
2019-03-28T21:29:51.371Z,10.30
2019-03-28T21:32:21.324Z,10.20
2019-03-28T21:34:51.302Z,10.30
2019-03-28T21:37:21.254Z,10.20
2019-03-28T21:39:51.262Z,10.20
2019-03-28T21:42:21.214Z,10.20
2019-03-28T21:44:51.326Z,10.10
2019-03-28T21:47:21.322Z,10.10
2019-03-28T21:49:51.310Z,10.00
2019-03-28T21:52:21.266Z,10.20
2019-03-28T21:54:51.357Z,10.20
2019-03-28T21:57:21.331Z,10.30
2019-03-28T21:59:51.602Z,10.40
2019-03-28T22:02:22.261Z,10.40
2019-03-28T22:04:52.233Z,10.40
2019-03-28T22:07:22.215Z,10.30
2019-03-28T22:09:52.552Z,10.30
2019-03-28T22:12:22.498Z,10.40
2019-03-28T22:14:52.481Z,10.30
2019-03-28T22:17:22.438Z,10.30
2019-03-28T22:19:52.442Z,10.40
2019-03-28T22:22:22.635Z,10.30
2019-03-28T22:24:52.696Z,10.30
2019-03-28T22:27:22.673Z,10.30
2019-03-28T22:29:52.633Z,10.30
2019-03-28T22:32:23.157Z,10.30
2019-03-28T22:34:53.314Z,10.30
2019-03-28T22:37:23.296Z,10.30
2019-03-28T22:39:53.538Z,10.30
2019-03-28T22:42:23.530Z,10.30
2019-03-28T22:44:53.468Z,10.30
2019-03-28T22:47:23.478Z,10.20
2019-03-28T22:49:53.407Z,10.10
2019-03-28T22:52:23.389Z,10.10
2019-03-28T22:54:53.425Z,10.00
2019-03-28T22:57:23.394Z,10.10
2019-03-28T22:59:53.370Z,10.10
2019-03-28T23:02:24.039Z,10.00
2019-03-28T23:04:54.269Z,9.80
2019-03-28T23:07:24.521Z,9.70
2019-03-28T23:09:54.491Z,9.60
2019-03-28T23:12:24.447Z,9.50
2019-03-28T23:14:54.419Z,9.30
2019-03-28T23:17:24.444Z,9.20
2019-03-28T23:19:54.390Z,9.10
2019-03-28T23:22:24.393Z,9.00
2019-03-28T23:24:54.740Z,8.90
2019-03-28T23:27:24.873Z,8.90
2019-03-28T23:29:55.088Z,8.80
2019-03-28T23:32:25.056Z,8.80
2019-03-28T23:34:55.030Z,8.70
2019-03-28T23:37:26.782Z,8.60
2019-03-28T23:39:56.974Z,8.60
2019-03-28T23:42:27.358Z,8.50
2019-03-28T23:44:57.301Z,8.40
2019-03-28T23:47:27.280Z,8.30
2019-03-28T23:49:57.492Z,8.30
2019-03-28T23:52:27.461Z,8.20
2019-03-28T23:54:57.797Z,8.30
2019-03-28T23:57:28.831Z,8.20
2019-03-28T23:59:58.934Z,8.20
